sensor_id;sensor_type;location;lat;lon;timestamp;P1;durP1;ratioP1;P2;durP2;ratioP2
72325;SDS011;60278;47.980;18.780;2022-08-04T00:01:39;5.32;;;2.75;;
72325;SDS011;60278;47.980;18.780;2022-08-04T00:05:18;6.20;;;2.47;;
72325;SDS011;60278;47.980;18.780;2022-08-04T00:08:55;7.20;;;2.80;;
72325;SDS011;60278;47.980;18.780;2022-08-04T00:12:30;5.30;;;2.80;;
72325;SDS011;60278;47.980;18.780;2022-08-04T00:16:04;5.07;;;2.67;;
72325;SDS011;60278;47.980;18.780;2022-08-04T00:19:39;4.88;;;2.80;;
72325;SDS011;60278;47.980;18.780;2022-08-04T00:23:13;6.45;;;3.00;;
72325;SDS011;60278;47.980;18.780;2022-08-04T00:26:47;4.18;;;2.50;;
72325;SDS011;60278;47.980;18.780;2022-08-04T00:30:19;4.37;;;2.93;;
72325;SDS011;60278;47.980;18.780;2022-08-04T00:33:50;6.15;;;3.33;;
72325;SDS011;60278;47.980;18.780;2022-08-04T00:37:21;6.07;;;3.58;;
72325;SDS011;60278;47.980;18.780;2022-08-04T00:44:42;7.53;;;2.93;;
72325;SDS011;60278;47.980;18.780;2022-08-04T00:56:14;5.47;;;3.10;;
72325;SDS011;60278;47.980;18.780;2022-08-04T00:59:52;4.90;;;3.10;;
72325;SDS011;60278;47.980;18.780;2022-08-04T01:07:46;5.93;;;3.67;;
72325;SDS011;60278;47.980;18.780;2022-08-04T01:12:03;7.30;;;3.73;;
72325;SDS011;60278;47.980;18.780;2022-08-04T01:16:01;6.13;;;3.10;;
72325;SDS011;60278;47.980;18.780;2022-08-04T01:19:50;4.90;;;3.35;;
72325;SDS011;60278;47.980;18.780;2022-08-04T01:23:35;9.05;;;3.80;;
72325;SDS011;60278;47.980;18.780;2022-08-04T01:31:21;9.93;;;3.85;;
72325;SDS011;60278;47.980;18.780;2022-08-04T01:35:18;6.97;;;3.80;;
72325;SDS011;60278;47.980;18.780;2022-08-04T01:38:55;5.53;;;3.23;;
72325;SDS011;60278;47.980;18.780;2022-08-04T01:42:26;6.53;;;3.67;;
72325;SDS011;60278;47.980;18.780;2022-08-04T01:46:02;5.82;;;3.58;;
72325;SDS011;60278;47.980;18.780;2022-08-04T01:49:34;8.90;;;3.97;;
72325;SDS011;60278;47.980;18.780;2022-08-04T01:53:08;7.03;;;3.33;;
72325;SDS011;60278;47.980;18.780;2022-08-04T01:56:39;6.07;;;3.40;;
72325;SDS011;60278;47.980;18.780;2022-08-04T02:00:14;5.82;;;3.08;;
72325;SDS011;60278;47.980;18.780;2022-08-04T02:03:47;6.85;;;3.90;;
72325;SDS011;60278;47.980;18.780;2022-08-04T02:11:16;5.80;;;3.67;;
72325;SDS011;60278;47.980;18.780;2022-08-04T02:18:33;5.57;;;4.20;;
72325;SDS011;60278;47.980;18.780;2022-08-04T02:22:15;6.10;;;3.65;;
72325;SDS011;60278;47.980;18.780;2022-08-04T02:25:52;6.65;;;4.10;;
72325;SDS011;60278;47.980;18.780;2022-08-04T02:29:34;9.43;;;3.60;;
72325;SDS011;60278;47.980;18.780;2022-08-04T02:33:22;6.10;;;3.40;;
72325;SDS011;60278;47.980;18.780;2022-08-04T02:36:56;8.82;;;3.58;;
72325;SDS011;60278;47.980;18.780;2022-08-04T02:40:29;8.65;;;3.97;;
72325;SDS011;60278;47.980;18.780;2022-08-04T02:44:05;8.00;;;4.20;;
72325;SDS011;60278;47.980;18.780;2022-08-04T02:47:37;6.72;;;3.80;;
72325;SDS011;60278;47.980;18.780;2022-08-04T02:51:09;6.60;;;4.03;;
72325;SDS011;60278;47.980;18.780;2022-08-04T02:54:42;8.03;;;3.97;;
72325;SDS011;60278;47.980;18.780;2022-08-04T02:58:15;8.60;;;4.65;;
72325;SDS011;60278;47.980;18.780;2022-08-04T03:01:50;6.72;;;4.15;;
72325;SDS011;60278;47.980;18.780;2022-08-04T03:05:26;8.13;;;4.43;;
72325;SDS011;60278;47.980;18.780;2022-08-04T03:21:14;6.43;;;4.23;;
72325;SDS011;60278;47.980;18.780;2022-08-04T03:25:37;7.15;;;4.45;;
72325;SDS011;60278;47.980;18.780;2022-08-04T03:29:29;8.07;;;4.40;;
72325;SDS011;60278;47.980;18.780;2022-08-04T03:56:27;6.68;;;4.38;;
72325;SDS011;60278;47.980;18.780;2022-08-04T04:00:25;6.38;;;4.40;;
72325;SDS011;60278;47.980;18.780;2022-08-04T04:04:14;7.70;;;4.40;;
72325;SDS011;60278;47.980;18.780;2022-08-04T04:08:22;5.90;;;4.20;;
72325;SDS011;60278;47.980;18.780;2022-08-04T04:35:36;7.17;;;3.90;;
72325;SDS011;60278;47.980;18.780;2022-08-04T04:54:44;9.77;;;3.60;;
72325;SDS011;60278;47.980;18.780;2022-08-04T04:58:37;9.18;;;4.30;;
72325;SDS011;60278;47.980;18.780;2022-08-04T05:05:53;6.83;;;3.63;;
72325;SDS011;60278;47.980;18.780;2022-08-04T05:25:02;5.93;;;3.70;;
72325;SDS011;60278;47.980;18.780;2022-08-04T05:28:44;6.70;;;3.60;;
72325;SDS011;60278;47.980;18.780;2022-08-04T05:32:30;6.40;;;4.07;;
72325;SDS011;60278;47.980;18.780;2022-08-04T05:36:09;5.40;;;3.70;;
72325;SDS011;60278;47.980;18.780;2022-08-04T05:39:45;8.50;;;3.75;;
72325;SDS011;60278;47.980;18.780;2022-08-04T05:43:23;8.40;;;3.95;;
72325;SDS011;60278;47.980;18.780;2022-08-04T05:46:56;8.67;;;4.17;;
72325;SDS011;60278;47.980;18.780;2022-08-04T05:50:28;9.52;;;4.10;;
72325;SDS011;60278;47.980;18.780;2022-08-04T05:54:01;6.35;;;3.78;;
72325;SDS011;60278;47.980;18.780;2022-08-04T05:57:32;4.90;;;3.47;;
72325;SDS011;60278;47.980;18.780;2022-08-04T06:01:04;6.03;;;3.63;;
72325;SDS011;60278;47.980;18.780;2022-08-04T06:04:39;6.47;;;3.40;;
72325;SDS011;60278;47.980;18.780;2022-08-04T06:08:11;6.45;;;3.67;;
72325;SDS011;60278;47.980;18.780;2022-08-04T06:11:42;8.98;;;3.70;;
72325;SDS011;60278;47.980;18.780;2022-08-04T06:15:16;7.20;;;3.47;;
72325;SDS011;60278;47.980;18.780;2022-08-04T06:18:50;15.50;;;3.88;;
72325;SDS011;60278;47.980;18.780;2022-08-04T06:22:23;6.82;;;3.22;;
72325;SDS011;60278;47.980;18.780;2022-08-04T06:25:56;10.63;;;3.70;;
72325;SDS011;60278;47.980;18.780;2022-08-04T06:29:29;8.20;;;3.80;;
72325;SDS011;60278;47.980;18.780;2022-08-04T06:33:07;4.93;;;3.38;;
72325;SDS011;60278;47.980;18.780;2022-08-04T06:36:57;8.05;;;3.50;;
72325;SDS011;60278;47.980;18.780;2022-08-04T06:40:29;5.93;;;3.35;;
72325;SDS011;60278;47.980;18.780;2022-08-04T06:44:02;7.73;;;3.37;;
72325;SDS011;60278;47.980;18.780;2022-08-04T06:47:36;5.18;;;3.42;;
72325;SDS011;60278;47.980;18.780;2022-08-04T06:51:09;8.13;;;3.10;;
72325;SDS011;60278;47.980;18.780;2022-08-04T06:54:43;8.38;;;2.78;;
72325;SDS011;60278;47.980;18.780;2022-08-04T06:58:15;5.07;;;2.83;;
72325;SDS011;60278;47.980;18.780;2022-08-04T07:01:48;6.72;;;2.90;;
72325;SDS011;60278;47.980;18.780;2022-08-04T07:05:20;6.47;;;3.03;;
72325;SDS011;60278;47.980;18.780;2022-08-04T07:08:52;5.85;;;2.85;;
72325;SDS011;60278;47.980;18.780;2022-08-04T07:12:24;5.13;;;2.83;;
72325;SDS011;60278;47.980;18.780;2022-08-04T07:15:57;4.97;;;2.80;;
72325;SDS011;60278;47.980;18.780;2022-08-04T07:19:32;4.50;;;2.67;;
72325;SDS011;60278;47.980;18.780;2022-08-04T07:23:05;5.15;;;2.70;;
72325;SDS011;60278;47.980;18.780;2022-08-04T07:26:36;4.03;;;2.50;;
72325;SDS011;60278;47.980;18.780;2022-08-04T07:30:08;4.27;;;2.87;;
72325;SDS011;60278;47.980;18.780;2022-08-04T07:33:40;5.43;;;2.70;;
72325;SDS011;60278;47.980;18.780;2022-08-04T07:37:12;5.57;;;2.58;;
72325;SDS011;60278;47.980;18.780;2022-08-04T07:40:44;5.93;;;2.72;;
72325;SDS011;60278;47.980;18.780;2022-08-04T07:44:16;6.78;;;2.80;;
72325;SDS011;60278;47.980;18.780;2022-08-04T07:47:47;5.13;;;2.70;;
72325;SDS011;60278;47.980;18.780;2022-08-04T07:51:18;4.53;;;2.57;;
72325;SDS011;60278;47.980;18.780;2022-08-04T07:54:51;4.80;;;2.63;;
72325;SDS011;60278;47.980;18.780;2022-08-04T07:58:23;4.40;;;2.47;;
72325;SDS011;60278;47.980;18.780;2022-08-04T08:01:57;5.10;;;2.60;;
72325;SDS011;60278;47.980;18.780;2022-08-04T08:05:30;4.33;;;2.30;;
72325;SDS011;60278;47.980;18.780;2022-08-04T08:09:23;4.35;;;2.42;;
72325;SDS011;60278;47.980;18.780;2022-08-04T08:12:53;4.40;;;2.30;;
72325;SDS011;60278;47.980;18.780;2022-08-04T08:16:25;4.10;;;2.50;;
72325;SDS011;60278;47.980;18.780;2022-08-04T08:19:58;5.30;;;2.40;;
72325;SDS011;60278;47.980;18.780;2022-08-04T08:23:29;5.70;;;2.63;;
72325;SDS011;60278;47.980;18.780;2022-08-04T08:27:02;5.65;;;2.40;;
72325;SDS011;60278;47.980;18.780;2022-08-04T08:30:34;7.63;;;2.50;;
72325;SDS011;60278;47.980;18.780;2022-08-04T08:34:05;4.43;;;2.10;;
72325;SDS011;60278;47.980;18.780;2022-08-04T08:37:42;3.63;;;2.28;;
72325;SDS011;60278;47.980;18.780;2022-08-04T08:41:22;7.18;;;2.50;;
72325;SDS011;60278;47.980;18.780;2022-08-04T09:07:38;3.83;;;2.08;;
72325;SDS011;60278;47.980;18.780;2022-08-04T09:11:39;4.38;;;2.30;;
72325;SDS011;60278;47.980;18.780;2022-08-04T09:15:23;4.27;;;2.10;;
72325;SDS011;60278;47.980;18.780;2022-08-04T09:22:53;3.50;;;1.90;;
72325;SDS011;60278;47.980;18.780;2022-08-04T09:30:35;3.97;;;1.90;;
72325;SDS011;60278;47.980;18.780;2022-08-04T09:46:41;4.80;;;1.98;;
72325;SDS011;60278;47.980;18.780;2022-08-04T09:54:24;4.05;;;2.05;;
72325;SDS011;60278;47.980;18.780;2022-08-04T10:02:06;5.55;;;2.10;;
72325;SDS011;60278;47.980;18.780;2022-08-04T10:16:34;4.00;;;2.00;;
72325;SDS011;60278;47.980;18.780;2022-08-04T10:28:02;7.57;;;2.10;;
72325;SDS011;60278;47.980;18.780;2022-08-04T10:31:38;5.15;;;2.20;;
72325;SDS011;60278;47.980;18.780;2022-08-04T10:35:14;5.55;;;2.40;;
72325;SDS011;60278;47.980;18.780;2022-08-04T10:42:34;4.32;;;2.15;;
72325;SDS011;60278;47.980;18.780;2022-08-04T10:49:54;6.60;;;2.43;;
72325;SDS011;60278;47.980;18.780;2022-08-04T10:53:30;5.17;;;2.47;;
72325;SDS011;60278;47.980;18.780;2022-08-04T10:57:07;4.78;;;2.20;;
72325;SDS011;60278;47.980;18.780;2022-08-04T11:01:04;6.53;;;2.70;;
72325;SDS011;60278;47.980;18.780;2022-08-04T11:04:46;6.23;;;2.53;;
72325;SDS011;60278;47.980;18.780;2022-08-04T11:12:00;5.32;;;2.47;;
72325;SDS011;60278;47.980;18.780;2022-08-04T11:15:37;4.80;;;2.30;;
72325;SDS011;60278;47.980;18.780;2022-08-04T11:19:16;4.00;;;2.20;;
72325;SDS011;60278;47.980;18.780;2022-08-04T11:23:02;5.20;;;2.15;;
72325;SDS011;60278;47.980;18.780;2022-08-04T11:26:47;4.47;;;2.47;;
72325;SDS011;60278;47.980;18.780;2022-08-04T11:30:21;5.18;;;2.03;;
72325;SDS011;60278;47.980;18.780;2022-08-04T11:37:55;3.70;;;2.20;;
72325;SDS011;60278;47.980;18.780;2022-08-04T11:46:06;6.77;;;2.57;;
72325;SDS011;60278;47.980;18.780;2022-08-04T11:49:43;4.97;;;2.37;;
72325;SDS011;60278;47.980;18.780;2022-08-04T11:53:19;5.57;;;2.53;;
72325;SDS011;60278;47.980;18.780;2022-08-04T11:56:53;9.70;;;2.40;;
72325;SDS011;60278;47.980;18.780;2022-08-04T12:00:27;3.72;;;2.40;;
72325;SDS011;60278;47.980;18.780;2022-08-04T12:04:17;5.23;;;2.07;;
72325;SDS011;60278;47.980;18.780;2022-08-04T12:11:51;7.38;;;2.70;;
72325;SDS011;60278;47.980;18.780;2022-08-04T12:19:23;4.45;;;3.17;;
72325;SDS011;60278;47.980;18.780;2022-08-04T12:23:04;4.93;;;2.60;;
72325;SDS011;60278;47.980;18.780;2022-08-04T12:26:44;8.13;;;2.60;;
72325;SDS011;60278;47.980;18.780;2022-08-04T12:30:25;4.10;;;2.50;;
72325;SDS011;60278;47.980;18.780;2022-08-04T12:37:55;5.47;;;2.57;;
72325;SDS011;60278;47.980;18.780;2022-08-04T12:41:57;5.70;;;2.60;;
72325;SDS011;60278;47.980;18.780;2022-08-04T12:45:32;6.63;;;2.72;;
72325;SDS011;60278;47.980;18.780;2022-08-04T12:49:03;3.97;;;2.35;;
72325;SDS011;60278;47.980;18.780;2022-08-04T12:52:42;4.90;;;2.17;;
72325;SDS011;60278;47.980;18.780;2022-08-04T12:56:21;5.40;;;2.10;;
72325;SDS011;60278;47.980;18.780;2022-08-04T12:59:56;3.78;;;2.50;;
72325;SDS011;60278;47.980;18.780;2022-08-04T13:03:28;5.78;;;2.40;;
72325;SDS011;60278;47.980;18.780;2022-08-04T13:07:09;4.90;;;2.38;;
72325;SDS011;60278;47.980;18.780;2022-08-04T13:10:46;5.57;;;2.27;;
72325;SDS011;60278;47.980;18.780;2022-08-04T13:14:19;7.70;;;2.27;;
72325;SDS011;60278;47.980;18.780;2022-08-04T13:17:55;4.03;;;2.10;;
72325;SDS011;60278;47.980;18.780;2022-08-04T13:21:31;4.60;;;2.28;;
72325;SDS011;60278;47.980;18.780;2022-08-04T13:25:04;4.95;;;2.50;;
72325;SDS011;60278;47.980;18.780;2022-08-04T13:28:37;6.80;;;2.40;;
72325;SDS011;60278;47.980;18.780;2022-08-04T13:32:14;4.57;;;2.47;;
72325;SDS011;60278;47.980;18.780;2022-08-04T13:35:47;5.40;;;2.42;;
72325;SDS011;60278;47.980;18.780;2022-08-04T13:39:19;4.60;;;2.33;;
72325;SDS011;60278;47.980;18.780;2022-08-04T13:42:52;4.22;;;2.20;;
72325;SDS011;60278;47.980;18.780;2022-08-04T13:46:25;6.30;;;2.30;;
72325;SDS011;60278;47.980;18.780;2022-08-04T13:50:04;10.88;;;2.63;;
72325;SDS011;60278;47.980;18.780;2022-08-04T13:53:38;4.65;;;2.33;;
72325;SDS011;60278;47.980;18.780;2022-08-04T13:57:15;5.35;;;2.50;;
72325;SDS011;60278;47.980;18.780;2022-08-04T14:04:30;3.60;;;1.97;;
72325;SDS011;60278;47.980;18.780;2022-08-04T14:08:14;5.65;;;2.50;;
72325;SDS011;60278;47.980;18.780;2022-08-04T14:11:54;3.53;;;2.00;;
72325;SDS011;60278;47.980;18.780;2022-08-04T14:19:06;4.77;;;2.20;;
72325;SDS011;60278;47.980;18.780;2022-08-04T14:22:37;3.90;;;2.15;;
72325;SDS011;60278;47.980;18.780;2022-08-04T14:29:59;7.15;;;2.63;;
72325;SDS011;60278;47.980;18.780;2022-08-04T14:33:35;4.10;;;2.20;;
72325;SDS011;60278;47.980;18.780;2022-08-04T14:37:08;4.90;;;2.23;;
72325;SDS011;60278;47.980;18.780;2022-08-04T14:40:41;6.97;;;2.17;;
72325;SDS011;60278;47.980;18.780;2022-08-04T14:44:13;6.95;;;2.63;;
72325;SDS011;60278;47.980;18.780;2022-08-04T14:47:45;7.50;;;2.50;;
72325;SDS011;60278;47.980;18.780;2022-08-04T14:51:17;5.37;;;2.40;;
72325;SDS011;60278;47.980;18.780;2022-08-04T14:54:48;5.30;;;2.60;;
72325;SDS011;60278;47.980;18.780;2022-08-04T15:01:54;6.18;;;2.40;;
72325;SDS011;60278;47.980;18.780;2022-08-04T15:05:26;4.10;;;2.10;;
72325;SDS011;60278;47.980;18.780;2022-08-04T15:09:02;6.10;;;2.67;;
72325;SDS011;60278;47.980;18.780;2022-08-04T15:12:37;5.03;;;2.72;;
72325;SDS011;60278;47.980;18.780;2022-08-04T15:16:09;5.30;;;2.40;;
72325;SDS011;60278;47.980;18.780;2022-08-04T15:19:41;5.65;;;2.53;;
72325;SDS011;60278;47.980;18.780;2022-08-04T15:23:12;4.63;;;2.60;;
72325;SDS011;60278;47.980;18.780;2022-08-04T15:26:47;4.37;;;2.60;;
72325;SDS011;60278;47.980;18.780;2022-08-04T15:30:20;4.80;;;2.40;;
72325;SDS011;60278;47.980;18.780;2022-08-04T15:33:51;8.77;;;2.47;;
72325;SDS011;60278;47.980;18.780;2022-08-04T15:38:08;6.05;;;2.60;;
72325;SDS011;60278;47.980;18.780;2022-08-04T15:41:22;4.47;;;2.20;;
72325;SDS011;60278;47.980;18.780;2022-08-04T15:45:23;5.82;;;2.40;;
72325;SDS011;60278;47.980;18.780;2022-08-04T15:48:54;4.07;;;2.10;;
72325;SDS011;60278;47.980;18.780;2022-08-04T15:52:25;5.70;;;2.70;;
72325;SDS011;60278;47.980;18.780;2022-08-04T15:55:56;8.88;;;2.78;;
72325;SDS011;60278;47.980;18.780;2022-08-04T16:07:05;5.60;;;2.47;;
72325;SDS011;60278;47.980;18.780;2022-08-04T16:10:37;6.78;;;2.40;;
72325;SDS011;60278;47.980;18.780;2022-08-04T16:14:10;9.63;;;2.53;;
72325;SDS011;60278;47.980;18.780;2022-08-04T16:17:41;5.13;;;2.38;;
72325;SDS011;60278;47.980;18.780;2022-08-04T16:21:17;5.93;;;2.47;;
72325;SDS011;60278;47.980;18.780;2022-08-04T16:24:50;5.65;;;3.15;;
72325;SDS011;60278;47.980;18.780;2022-08-04T16:35:42;8.65;;;4.18;;
72325;SDS011;60278;47.980;18.780;2022-08-04T16:39:18;12.82;;;7.18;;
72325;SDS011;60278;47.980;18.780;2022-08-04T16:42:49;9.67;;;6.13;;
72325;SDS011;60278;47.980;18.780;2022-08-04T16:46:39;6.40;;;4.47;;
72325;SDS011;60278;47.980;18.780;2022-08-04T16:50:15;6.75;;;3.47;;
72325;SDS011;60278;47.980;18.780;2022-08-04T16:53:51;6.43;;;2.55;;
72325;SDS011;60278;47.980;18.780;2022-08-04T16:57:22;4.40;;;2.70;;
72325;SDS011;60278;47.980;18.780;2022-08-04T17:00:53;6.27;;;2.83;;
72325;SDS011;60278;47.980;18.780;2022-08-04T17:04:32;7.23;;;2.50;;
72325;SDS011;60278;47.980;18.780;2022-08-04T17:08:04;6.55;;;2.50;;
72325;SDS011;60278;47.980;18.780;2022-08-04T17:11:36;5.25;;;2.42;;
72325;SDS011;60278;47.980;18.780;2022-08-04T17:15:23;8.45;;;2.35;;
72325;SDS011;60278;47.980;18.780;2022-08-04T17:18:55;4.37;;;2.53;;
72325;SDS011;60278;47.980;18.780;2022-08-04T17:22:27;5.03;;;2.50;;
72325;SDS011;60278;47.980;18.780;2022-08-04T17:25:59;5.13;;;2.17;;
72325;SDS011;60278;47.980;18.780;2022-08-04T17:29:30;9.02;;;2.58;;
72325;SDS011;60278;47.980;18.780;2022-08-04T17:33:04;7.50;;;2.72;;
72325;SDS011;60278;47.980;18.780;2022-08-04T17:36:35;6.20;;;2.60;;
72325;SDS011;60278;47.980;18.780;2022-08-04T17:40:16;5.47;;;2.50;;
72325;SDS011;60278;47.980;18.780;2022-08-04T17:43:49;4.68;;;2.65;;
72325;SDS011;60278;47.980;18.780;2022-08-04T17:47:22;6.82;;;2.60;;
72325;SDS011;60278;47.980;18.780;2022-08-04T17:50:53;6.05;;;2.70;;
72325;SDS011;60278;47.980;18.780;2022-08-04T17:54:28;8.10;;;2.73;;
72325;SDS011;60278;47.980;18.780;2022-08-04T17:58:14;4.35;;;2.80;;
72325;SDS011;60278;47.980;18.780;2022-08-04T18:05:27;6.13;;;2.60;;
72325;SDS011;60278;47.980;18.780;2022-08-04T18:09:00;6.73;;;2.50;;
72325;SDS011;60278;47.980;18.780;2022-08-04T18:12:35;6.68;;;2.85;;
72325;SDS011;60278;47.980;18.780;2022-08-04T18:16:07;5.15;;;2.38;;
72325;SDS011;60278;47.980;18.780;2022-08-04T18:19:49;5.95;;;2.50;;
72325;SDS011;60278;47.980;18.780;2022-08-04T18:23:22;8.47;;;3.07;;
72325;SDS011;60278;47.980;18.780;2022-08-04T18:26:53;7.28;;;2.67;;
72325;SDS011;60278;47.980;18.780;2022-08-04T18:30:24;8.02;;;3.10;;
72325;SDS011;60278;47.980;18.780;2022-08-04T18:33:58;8.88;;;3.28;;
72325;SDS011;60278;47.980;18.780;2022-08-04T18:37:30;7.38;;;2.92;;
72325;SDS011;60278;47.980;18.780;2022-08-04T18:41:02;4.33;;;2.93;;
72325;SDS011;60278;47.980;18.780;2022-08-04T18:44:33;7.55;;;2.75;;
72325;SDS011;60278;47.980;18.780;2022-08-04T18:48:04;9.27;;;3.30;;
72325;SDS011;60278;47.980;18.780;2022-08-04T18:51:36;7.90;;;3.45;;
72325;SDS011;60278;47.980;18.780;2022-08-04T18:55:07;5.03;;;3.20;;
72325;SDS011;60278;47.980;18.780;2022-08-04T18:58:39;7.03;;;3.10;;
72325;SDS011;60278;47.980;18.780;2022-08-04T19:02:10;8.05;;;3.42;;
72325;SDS011;60278;47.980;18.780;2022-08-04T19:05:41;5.85;;;2.78;;
72325;SDS011;60278;47.980;18.780;2022-08-04T19:09:12;5.85;;;3.22;;
72325;SDS011;60278;47.980;18.780;2022-08-04T19:12:43;6.60;;;2.87;;
72325;SDS011;60278;47.980;18.780;2022-08-04T19:16:14;6.03;;;2.90;;
72325;SDS011;60278;47.980;18.780;2022-08-04T19:19:46;5.45;;;3.28;;
72325;SDS011;60278;47.980;18.780;2022-08-04T19:23:17;6.03;;;3.25;;
72325;SDS011;60278;47.980;18.780;2022-08-04T19:26:48;6.80;;;4.05;;
72325;SDS011;60278;47.980;18.780;2022-08-04T19:30:19;8.20;;;3.67;;
72325;SDS011;60278;47.980;18.780;2022-08-04T19:33:50;5.20;;;3.30;;
72325;SDS011;60278;47.980;18.780;2022-08-04T19:37:21;7.57;;;3.20;;
72325;SDS011;60278;47.980;18.780;2022-08-04T19:40:52;6.25;;;3.53;;
72325;SDS011;60278;47.980;18.780;2022-08-04T19:44:23;7.35;;;3.35;;
72325;SDS011;60278;47.980;18.780;2022-08-04T19:47:54;10.73;;;3.10;;
72325;SDS011;60278;47.980;18.780;2022-08-04T19:51:25;5.70;;;3.10;;
72325;SDS011;60278;47.980;18.780;2022-08-04T19:54:57;9.38;;;3.50;;
72325;SDS011;60278;47.980;18.780;2022-08-04T19:58:28;5.28;;;3.65;;
72325;SDS011;60278;47.980;18.780;2022-08-04T20:01:59;8.80;;;3.60;;
72325;SDS011;60278;47.980;18.780;2022-08-04T20:05:30;6.95;;;3.58;;
72325;SDS011;60278;47.980;18.780;2022-08-04T20:09:02;8.48;;;3.35;;
72325;SDS011;60278;47.980;18.780;2022-08-04T20:12:33;7.20;;;3.35;;
72325;SDS011;60278;47.980;18.780;2022-08-04T20:16:05;13.17;;;4.70;;
72325;SDS011;60278;47.980;18.780;2022-08-04T20:19:37;8.43;;;4.03;;
72325;SDS011;60278;47.980;18.780;2022-08-04T20:23:08;8.07;;;4.07;;
72325;SDS011;60278;47.980;18.780;2022-08-04T20:26:39;5.45;;;3.63;;
72325;SDS011;60278;47.980;18.780;2022-08-04T20:30:11;11.77;;;6.70;;
72325;SDS011;60278;47.980;18.780;2022-08-04T20:33:42;9.57;;;5.10;;
72325;SDS011;60278;47.980;18.780;2022-08-04T20:37:13;8.77;;;5.60;;
72325;SDS011;60278;47.980;18.780;2022-08-04T20:40:44;12.63;;;6.53;;
72325;SDS011;60278;47.980;18.780;2022-08-04T20:44:17;11.18;;;5.60;;
72325;SDS011;60278;47.980;18.780;2022-08-04T20:47:48;10.60;;;5.47;;
72325;SDS011;60278;47.980;18.780;2022-08-04T20:51:19;12.45;;;5.80;;
72325;SDS011;60278;47.980;18.780;2022-08-04T20:54:52;16.20;;;6.50;;
72325;SDS011;60278;47.980;18.780;2022-08-04T20:58:23;9.07;;;5.00;;
72325;SDS011;60278;47.980;18.780;2022-08-04T21:01:54;9.50;;;4.37;;
72325;SDS011;60278;47.980;18.780;2022-08-04T21:05:26;6.85;;;4.00;;
72325;SDS011;60278;47.980;18.780;2022-08-04T21:08:57;6.97;;;3.95;;
72325;SDS011;60278;47.980;18.780;2022-08-04T21:12:29;9.10;;;3.50;;
72325;SDS011;60278;47.980;18.780;2022-08-04T21:16:00;7.30;;;3.43;;
72325;SDS011;60278;47.980;18.780;2022-08-04T21:19:31;6.78;;;3.40;;
72325;SDS011;60278;47.980;18.780;2022-08-04T21:23:02;6.05;;;3.47;;
72325;SDS011;60278;47.980;18.780;2022-08-04T21:26:33;5.60;;;3.47;;
72325;SDS011;60278;47.980;18.780;2022-08-04T21:30:04;5.17;;;3.13;;
72325;SDS011;60278;47.980;18.780;2022-08-04T21:33:36;5.32;;;3.47;;
72325;SDS011;60278;47.980;18.780;2022-08-04T21:37:07;5.32;;;3.30;;
72325;SDS011;60278;47.980;18.780;2022-08-04T21:40:39;5.90;;;3.45;;
72325;SDS011;60278;47.980;18.780;2022-08-04T21:44:11;12.40;;;3.57;;
72325;SDS011;60278;47.980;18.780;2022-08-04T21:47:42;5.72;;;3.35;;
72325;SDS011;60278;47.980;18.780;2022-08-04T21:54:48;5.25;;;3.45;;
72325;SDS011;60278;47.980;18.780;2022-08-04T21:58:19;7.10;;;3.50;;
72325;SDS011;60278;47.980;18.780;2022-08-04T22:01:50;6.07;;;3.45;;
72325;SDS011;60278;47.980;18.780;2022-08-04T22:05:22;7.32;;;3.67;;
72325;SDS011;60278;47.980;18.780;2022-08-04T22:08:53;5.87;;;3.40;;
72325;SDS011;60278;47.980;18.780;2022-08-04T22:12:24;7.27;;;3.30;;
72325;SDS011;60278;47.980;18.780;2022-08-04T22:15:55;10.40;;;3.92;;
72325;SDS011;60278;47.980;18.780;2022-08-04T22:19:27;6.32;;;3.45;;
72325;SDS011;60278;47.980;18.780;2022-08-04T22:22:58;5.87;;;3.93;;
72325;SDS011;60278;47.980;18.780;2022-08-04T22:26:29;6.90;;;3.40;;
72325;SDS011;60278;47.980;18.780;2022-08-04T22:30:02;5.25;;;3.72;;
72325;SDS011;60278;47.980;18.780;2022-08-04T22:33:35;5.97;;;3.72;;
72325;SDS011;60278;47.980;18.780;2022-08-04T22:37:06;6.30;;;3.50;;
72325;SDS011;60278;47.980;18.780;2022-08-04T22:40:37;6.37;;;3.67;;
72325;SDS011;60278;47.980;18.780;2022-08-04T22:44:08;8.27;;;4.03;;
72325;SDS011;60278;47.980;18.780;2022-08-04T22:47:39;7.55;;;3.47;;
72325;SDS011;60278;47.980;18.780;2022-08-04T22:51:10;6.87;;;3.50;;
72325;SDS011;60278;47.980;18.780;2022-08-04T22:54:42;8.00;;;3.83;;
72325;SDS011;60278;47.980;18.780;2022-08-04T22:58:13;8.85;;;3.70;;
72325;SDS011;60278;47.980;18.780;2022-08-04T23:01:44;5.70;;;3.58;;
72325;SDS011;60278;47.980;18.780;2022-08-04T23:05:15;8.17;;;3.50;;
72325;SDS011;60278;47.980;18.780;2022-08-04T23:08:46;9.23;;;3.97;;
72325;SDS011;60278;47.980;18.780;2022-08-04T23:12:17;6.72;;;4.47;;
72325;SDS011;60278;47.980;18.780;2022-08-04T23:15:49;6.10;;;3.95;;
72325;SDS011;60278;47.980;18.780;2022-08-04T23:19:20;6.57;;;4.07;;
72325;SDS011;60278;47.980;18.780;2022-08-04T23:22:51;5.30;;;3.67;;
72325;SDS011;60278;47.980;18.780;2022-08-04T23:26:22;5.70;;;3.90;;
72325;SDS011;60278;47.980;18.780;2022-08-04T23:29:53;9.35;;;4.20;;
72325;SDS011;60278;47.980;18.780;2022-08-04T23:33:24;6.57;;;4.13;;
72325;SDS011;60278;47.980;18.780;2022-08-04T23:36:56;5.97;;;3.88;;
72325;SDS011;60278;47.980;18.780;2022-08-04T23:40:27;6.55;;;3.78;;
72325;SDS011;60278;47.980;18.780;2022-08-04T23:44:00;5.40;;;3.60;;
72325;SDS011;60278;47.980;18.780;2022-08-04T23:47:32;8.40;;;3.80;;
72325;SDS011;60278;47.980;18.780;2022-08-04T23:51:04;5.60;;;3.35;;
72325;SDS011;60278;47.980;18.780;2022-08-04T23:54:36;6.45;;;3.80;;
72325;SDS011;60278;47.980;18.780;2022-08-04T23:58:07;5.80;;;3.77;;
